createdAt,value
2018-08-09T00:00:20.680Z,75.20
2018-08-09T00:02:49.027Z,75.10
2018-08-09T00:05:17.545Z,75.90
2018-08-09T00:07:46.239Z,75.60
2018-08-09T00:10:14.824Z,76.00
2018-08-09T00:12:43.761Z,75.90
2018-08-09T00:15:12.364Z,75.90
2018-08-09T00:17:41.294Z,76.10
2018-08-09T00:20:09.962Z,76.10
2018-08-09T00:22:38.440Z,76.80
2018-08-09T00:25:07.261Z,76.80
2018-08-09T00:27:35.939Z,77.20
2018-08-09T00:30:05.424Z,77.20
2018-08-09T00:32:33.969Z,77.10
2018-08-09T00:35:02.680Z,77.40
2018-08-09T00:37:31.139Z,77.10
2018-08-09T00:39:59.737Z,77.20
2018-08-09T00:42:28.173Z,77.00
2018-08-09T00:44:56.809Z,77.20
2018-08-09T00:47:25.328Z,77.80
2018-08-09T00:49:55.295Z,77.50
2018-08-09T00:52:23.689Z,77.30
2018-08-09T00:54:52.112Z,77.80
2018-08-09T00:57:20.660Z,77.90
2018-08-09T00:59:49.203Z,78.20
2018-08-09T01:02:17.808Z,78.30
2018-08-09T01:04:46.522Z,78.20
2018-08-09T01:07:15.226Z,78.20
2018-08-09T01:09:43.847Z,78.50
2018-08-09T01:12:12.436Z,78.20
2018-08-09T01:14:41.005Z,78.50
2018-08-09T01:17:09.808Z,78.20
2018-08-09T01:19:38.300Z,78.30
2018-08-09T01:22:06.967Z,78.30
2018-08-09T01:24:35.488Z,78.20
2018-08-09T01:27:03.874Z,78.60
2018-08-09T01:29:32.165Z,78.70
2018-08-09T01:32:00.777Z,78.40
2018-08-09T01:34:29.172Z,78.40
2018-08-09T01:36:57.574Z,78.70
2018-08-09T01:39:26.053Z,78.80
2018-08-09T01:42:06.309Z,79.70
2018-08-09T01:44:34.775Z,78.80
2018-08-09T01:47:03.347Z,78.70
2018-08-09T01:49:31.936Z,78.50
2018-08-09T01:52:00.381Z,79.30
2018-08-09T01:54:29.132Z,79.80
2018-08-09T01:56:57.580Z,79.70
2018-08-09T01:59:26.043Z,79.70
2018-08-09T02:01:54.432Z,79.80
2018-08-09T02:04:22.792Z,79.40
2018-08-09T02:06:51.260Z,79.30
2018-08-09T02:09:25.133Z,79.40
2018-08-09T02:11:53.611Z,79.40
2018-08-09T02:14:22.102Z,79.80
2018-08-09T02:16:50.483Z,79.80
2018-08-09T02:19:19.196Z,79.70
2018-08-09T02:21:47.677Z,79.50
2018-08-09T02:24:16.189Z,79.80
2018-08-09T02:26:44.728Z,79.80
2018-08-09T02:29:13.248Z,80.00
2018-08-09T02:31:41.859Z,79.80
2018-08-09T02:34:10.413Z,80.40
2018-08-09T02:36:38.913Z,79.90
2018-08-09T02:39:08.771Z,80.10
2018-08-09T02:41:37.177Z,80.00
2018-08-09T02:44:05.729Z,80.40
2018-08-09T02:46:34.150Z,80.20
2018-08-09T02:49:02.644Z,80.30
2018-08-09T02:51:31.120Z,80.60
2018-08-09T02:53:59.645Z,79.50
2018-08-09T02:56:28.156Z,80.00
2018-08-09T02:58:56.805Z,79.90
2018-08-09T03:01:25.289Z,80.20
2018-08-09T03:03:53.739Z,80.70
2018-08-09T03:06:22.184Z,80.10
2018-08-09T03:08:50.578Z,80.40
2018-08-09T03:11:19.308Z,80.80
2018-08-09T03:13:47.746Z,81.10
2018-08-09T03:16:16.207Z,80.40
2018-08-09T03:18:44.680Z,80.10
2018-08-09T03:21:13.246Z,80.10
2018-08-09T03:23:41.803Z,80.00
2018-08-09T03:26:10.281Z,80.50
2018-08-09T03:28:38.659Z,80.50
2018-08-09T03:31:07.458Z,80.60
2018-08-09T03:33:35.871Z,81.30
2018-08-09T03:36:04.305Z,80.80
2018-08-09T03:38:32.714Z,80.80
2018-08-09T03:41:01.128Z,81.50
2018-08-09T03:43:29.589Z,81.50
2018-08-09T03:45:58.113Z,81.90
2018-08-09T03:48:26.523Z,82.20
2018-08-09T03:50:54.963Z,82.10
2018-08-09T03:53:23.332Z,82.20
2018-08-09T03:55:51.796Z,81.80
2018-08-09T03:58:20.184Z,81.30
2018-08-09T04:00:48.627Z,81.50
2018-08-09T04:03:17.079Z,81.70
2018-08-09T04:05:45.550Z,81.90
2018-08-09T04:08:14.011Z,81.10
2018-08-09T04:10:42.384Z,81.50
2018-08-09T04:13:10.884Z,82.40
2018-08-09T04:15:39.362Z,82.30
2018-08-09T04:18:07.868Z,82.50
2018-08-09T04:20:36.332Z,82.70
2018-08-09T04:23:04.716Z,82.70
2018-08-09T04:25:33.131Z,82.80
2018-08-09T04:28:01.656Z,83.30
2018-08-09T04:30:30.165Z,83.60
2018-08-09T04:32:58.539Z,83.60
2018-08-09T04:35:27.253Z,83.40
2018-08-09T04:37:55.744Z,84.00
2018-08-09T04:40:24.524Z,83.30
2018-08-09T04:42:53.071Z,83.30
2018-08-09T04:45:21.792Z,83.40
2018-08-09T04:47:50.515Z,83.40
2018-08-09T04:50:18.937Z,82.80
2018-08-09T04:52:47.688Z,82.40
2018-08-09T04:55:16.185Z,82.40
2018-08-09T04:57:44.555Z,82.40
2018-08-09T05:00:13.108Z,82.20
2018-08-09T05:02:41.604Z,82.20
2018-08-09T05:05:10.084Z,82.20
2018-08-09T05:10:13.887Z,82.40
2018-08-09T05:12:43.280Z,82.10
2018-08-09T05:15:13.626Z,82.10
2018-08-09T05:17:42.384Z,82.20
2018-08-09T05:20:11.093Z,82.00
2018-08-09T05:22:40.028Z,81.60
2018-08-09T05:25:08.967Z,81.10
2018-08-09T05:27:38.913Z,80.90
2018-08-09T05:30:08.057Z,81.50
2018-08-09T05:32:38.100Z,80.40
2018-08-09T05:35:08.140Z,80.20
2018-08-09T05:37:37.427Z,79.80
2018-08-09T05:40:06.003Z,79.70
2018-08-09T05:42:34.780Z,79.20
2018-08-09T05:45:03.831Z,79.20
2018-08-09T05:47:32.393Z,79.00
2018-08-09T05:50:00.946Z,78.90
2018-08-09T05:52:29.357Z,78.80
2018-08-09T05:54:58.166Z,78.50
2018-08-09T05:57:26.713Z,78.30
2018-08-09T05:59:55.123Z,78.20
2018-08-09T06:02:23.660Z,77.60
2018-08-09T06:04:52.225Z,77.70
2018-08-09T06:07:20.863Z,77.60
2018-08-09T06:09:49.616Z,77.20
2018-08-09T06:12:18.062Z,77.00
2018-08-09T06:14:46.608Z,76.90
2018-08-09T06:17:14.976Z,76.50
2018-08-09T06:19:43.404Z,76.40
2018-08-09T06:22:11.942Z,76.10
2018-08-09T06:24:40.715Z,75.60
2018-08-09T06:27:09.163Z,75.50
2018-08-09T06:29:37.675Z,75.60
2018-08-09T06:32:06.613Z,75.20
2018-08-09T06:34:34.965Z,75.00
2018-08-09T06:37:03.384Z,75.00
2018-08-09T06:39:31.937Z,75.40
2018-08-09T06:42:03.462Z,74.90
2018-08-09T06:44:32.133Z,74.90
2018-08-09T06:47:00.587Z,74.20
2018-08-09T06:49:29.033Z,74.20
2018-08-09T06:51:57.536Z,74.60
2018-08-09T06:54:25.964Z,74.00
2018-08-09T06:56:54.589Z,74.40
2018-08-09T06:59:23.108Z,74.20
2018-08-09T07:01:51.892Z,74.00
2018-08-09T07:04:20.297Z,73.70
2018-08-09T07:06:48.653Z,73.20
2018-08-09T07:09:17.164Z,72.50
2018-08-09T07:11:45.780Z,72.80
2018-08-09T07:14:14.423Z,72.50
2018-08-09T07:16:42.834Z,71.50
2018-08-09T07:19:11.232Z,71.70
2018-08-09T07:21:39.576Z,71.80
2018-08-09T07:24:08.801Z,71.40
2018-08-09T07:26:37.247Z,70.00
2018-08-09T07:29:05.708Z,70.70
2018-08-09T07:31:34.060Z,70.60
2018-08-09T07:34:02.388Z,70.40
2018-08-09T07:36:30.924Z,70.40
2018-08-09T07:38:59.232Z,69.50
2018-08-09T07:41:27.709Z,69.30
2018-08-09T07:43:56.147Z,69.70
2018-08-09T07:46:24.544Z,70.00
2018-08-09T07:48:53.035Z,69.00
2018-08-09T07:51:21.780Z,69.40
2018-08-09T07:53:50.156Z,68.40
2018-08-09T07:56:18.511Z,68.60
2018-08-09T07:58:46.851Z,68.00
2018-08-09T08:01:15.240Z,67.60
2018-08-09T08:03:43.568Z,67.70
2018-08-09T08:06:12.051Z,66.60
2018-08-09T08:08:40.321Z,66.80
2018-08-09T08:11:08.717Z,67.50
2018-08-09T08:13:37.040Z,67.90
2018-08-09T08:16:05.559Z,67.10
2018-08-09T08:18:33.880Z,67.40
2018-08-09T08:21:02.183Z,66.90
2018-08-09T08:23:30.497Z,66.00
2018-08-09T08:25:58.798Z,64.80
2018-08-09T08:28:33.897Z,64.90
2018-08-09T08:31:02.268Z,63.70
2018-08-09T08:33:30.557Z,64.60
2018-08-09T08:35:58.952Z,64.60
2018-08-09T08:38:27.407Z,64.20
2018-08-09T08:40:55.756Z,63.50
2018-08-09T08:43:24.377Z,62.80
2018-08-09T08:45:52.663Z,62.90
2018-08-09T08:48:21.081Z,61.80
2018-08-09T08:50:49.360Z,61.60
2018-08-09T08:53:20.032Z,61.90
2018-08-09T08:55:48.327Z,62.80
2018-08-09T08:58:16.892Z,60.70
2018-08-09T09:00:45.496Z,59.40
2018-08-09T09:03:13.763Z,59.80
2018-08-09T09:05:42.064Z,59.60
2018-08-09T09:08:10.427Z,60.60
2018-08-09T09:10:38.742Z,60.30
2018-08-09T09:13:07.332Z,59.90
2018-08-09T09:15:35.664Z,58.70
2018-08-09T09:18:04.273Z,57.70
2018-08-09T09:20:32.536Z,57.30
2018-08-09T09:23:00.953Z,58.00
2018-08-09T09:25:29.282Z,57.90
2018-08-09T09:27:57.592Z,57.90
2018-08-09T09:30:26.028Z,58.60
2018-08-09T09:32:54.352Z,58.00
2018-08-09T09:35:22.759Z,57.30
2018-08-09T09:37:51.072Z,57.60
2018-08-09T09:40:19.352Z,57.70
2018-08-09T09:42:47.690Z,57.50
2018-08-09T09:45:16.020Z,57.80
2018-08-09T09:47:44.408Z,58.00
2018-08-09T09:50:12.801Z,57.70
2018-08-09T09:52:41.307Z,57.90
2018-08-09T09:55:09.588Z,58.40
2018-08-09T09:57:38.308Z,58.70
2018-08-09T10:00:12.672Z,58.60
2018-08-09T10:02:41.039Z,58.20
2018-08-09T10:05:09.420Z,58.50
2018-08-09T10:07:37.941Z,58.90
2018-08-09T10:10:06.519Z,58.70
2018-08-09T10:12:35.022Z,58.90
2018-08-09T10:15:03.312Z,59.60
2018-08-09T10:17:31.573Z,59.20
2018-08-09T10:19:59.918Z,59.20
2018-08-09T10:22:28.280Z,58.60
2018-08-09T10:24:56.568Z,58.50
2018-08-09T10:27:25.048Z,58.90
2018-08-09T10:29:53.394Z,59.10
2018-08-09T10:32:21.815Z,59.30
2018-08-09T10:34:50.196Z,59.30
2018-08-09T10:37:18.569Z,59.30
2018-08-09T10:39:46.905Z,59.40
2018-08-09T10:42:15.314Z,59.90
2018-08-09T10:44:43.654Z,61.70
2018-08-09T10:47:12.096Z,62.20
2018-08-09T10:49:40.436Z,62.70
2018-08-09T10:52:11.920Z,62.20
2018-08-09T10:54:40.650Z,63.60
2018-08-09T10:57:08.945Z,62.80
2018-08-09T10:59:37.776Z,62.80
2018-08-09T11:02:06.300Z,64.00
2018-08-09T11:04:34.585Z,63.80
2018-08-09T11:07:02.898Z,64.30
2018-08-09T11:09:31.265Z,65.30
2018-08-09T11:11:59.730Z,64.90
2018-08-09T11:14:28.205Z,65.10
2018-08-09T11:16:56.574Z,65.20
2018-08-09T11:19:25.212Z,65.70
2018-08-09T11:21:53.586Z,66.90
2018-08-09T11:24:21.940Z,65.90
2018-08-09T11:26:50.462Z,67.70
2018-08-09T11:29:19.540Z,67.50
2018-08-09T11:31:48.549Z,68.20
2018-08-09T11:34:18.755Z,68.40
2018-08-09T11:36:47.188Z,68.60
2018-08-09T11:39:15.517Z,68.90
2018-08-09T11:41:44.828Z,69.30
2018-08-09T11:44:14.236Z,70.20
2018-08-09T11:46:42.829Z,70.50
2018-08-09T11:49:13.996Z,70.00
2018-08-09T11:51:46.614Z,71.10
2018-08-09T11:54:15.123Z,71.10
2018-08-09T11:56:43.723Z,72.00
2018-08-09T11:59:17.139Z,71.80
2018-08-09T12:01:55.922Z,72.80
2018-08-09T12:04:24.726Z,71.60
2018-08-09T12:07:01.984Z,72.60
2018-08-09T12:09:37.457Z,72.30
2018-08-09T12:12:12.453Z,72.30
2018-08-09T12:14:42.674Z,72.90
2018-08-09T12:17:11.391Z,74.00
2018-08-09T12:19:39.759Z,74.60
2018-08-09T12:22:08.180Z,74.50
2018-08-09T12:24:37.946Z,75.10
2018-08-09T12:27:06.361Z,76.00
2018-08-09T12:29:34.832Z,76.10
2018-08-09T12:32:03.180Z,77.70
2018-08-09T12:34:31.767Z,78.50
2018-08-09T12:37:00.264Z,79.30
2018-08-09T12:39:28.771Z,79.00
2018-08-09T12:41:57.412Z,80.20
2018-08-09T12:44:25.786Z,81.10
2018-08-09T12:46:54.419Z,80.90
2018-08-09T12:49:22.892Z,81.90
2018-08-09T12:51:51.382Z,82.00
2018-08-09T12:54:19.878Z,82.60
2018-08-09T12:56:48.369Z,82.70
2018-08-09T12:59:16.814Z,82.60
2018-08-09T13:01:45.243Z,82.70
2018-08-09T13:04:13.782Z,83.50
2018-08-09T13:06:42.705Z,83.50
2018-08-09T13:09:12.511Z,83.50
2018-08-09T13:11:40.969Z,83.20
2018-08-09T13:14:09.845Z,83.00
2018-08-09T13:16:38.288Z,85.00
2018-08-09T13:19:07.228Z,86.70
2018-08-09T13:21:35.962Z,87.60
2018-08-09T13:24:04.578Z,87.20
2018-08-09T13:26:33.008Z,86.70
2018-08-09T13:29:01.518Z,86.60
2018-08-09T13:31:30.344Z,86.80
2018-08-09T13:33:58.958Z,86.10
2018-08-09T13:36:27.599Z,86.00
2018-08-09T13:38:56.686Z,86.20
2018-08-09T13:41:25.762Z,86.90
2018-08-09T13:43:55.568Z,87.30
2018-08-09T13:46:24.444Z,87.40
2018-08-09T13:48:52.989Z,87.90
2018-08-09T13:51:21.568Z,87.80
2018-08-09T13:53:49.969Z,88.00
2018-08-09T13:56:18.465Z,87.00
2018-08-09T13:58:46.952Z,87.10
2018-08-09T14:01:15.496Z,87.40
2018-08-09T14:03:44.249Z,87.60
2018-08-09T14:06:12.832Z,87.80
2018-08-09T14:08:41.549Z,87.70
2018-08-09T14:11:10.296Z,87.10
2018-08-09T14:13:39.965Z,86.70
2018-08-09T14:16:09.145Z,87.60
2018-08-09T14:18:38.067Z,89.60
2018-08-09T14:21:06.741Z,91.30
2018-08-09T14:23:35.591Z,92.40
2018-08-09T14:26:04.490Z,92.40
2018-08-09T14:28:33.249Z,93.10
2018-08-09T14:31:01.672Z,93.20
2018-08-09T14:33:30.421Z,93.20
2018-08-09T14:35:58.872Z,93.30
2018-08-09T14:38:27.480Z,93.50
2018-08-09T14:40:55.869Z,93.60
2018-08-09T14:43:24.493Z,93.20
2018-08-09T14:45:53.175Z,93.60
2018-08-09T14:48:21.639Z,94.10
2018-08-09T14:50:50.574Z,94.40
2018-08-09T14:53:19.175Z,93.80
2018-08-09T14:55:48.384Z,94.00
2018-08-09T14:58:16.914Z,94.60
2018-08-09T15:00:45.233Z,94.70
2018-08-09T15:03:13.729Z,94.20
2018-08-09T15:05:42.615Z,94.00
2018-08-09T15:08:11.257Z,94.10
2018-08-09T15:10:39.829Z,94.00
2018-08-09T15:13:08.775Z,94.10
2018-08-09T15:15:37.575Z,94.00
2018-08-09T15:18:06.411Z,94.20
2018-08-09T15:20:34.891Z,94.20
2018-08-09T15:23:03.296Z,94.10
2018-08-09T15:25:48.523Z,93.80
2018-08-09T15:28:17.557Z,93.50
2018-08-09T15:30:46.137Z,94.20
2018-08-09T15:33:21.696Z,94.20
2018-08-09T15:35:50.645Z,94.10
2018-08-09T15:38:19.387Z,94.30
2018-08-09T15:40:47.798Z,94.10
2018-08-09T15:43:16.988Z,94.10
2018-08-09T15:45:45.618Z,94.00
2018-08-09T15:48:14.499Z,94.10
2018-08-09T15:50:43.114Z,94.10
2018-08-09T15:53:11.743Z,94.30
2018-08-09T15:55:40.597Z,94.20
2018-08-09T15:58:09.249Z,93.80
2018-08-09T16:00:37.765Z,94.20
2018-08-09T16:03:06.796Z,93.90
2018-08-09T16:05:35.296Z,93.60
2018-08-09T16:08:04.192Z,94.10
2018-08-09T16:10:32.753Z,93.50
2018-08-09T16:13:01.418Z,93.40
2018-08-09T16:15:29.865Z,93.30
2018-08-09T16:17:58.421Z,93.40
2018-08-09T16:20:26.945Z,93.30
2018-08-09T16:22:55.445Z,93.40
2018-08-09T16:25:23.928Z,93.50
2018-08-09T16:27:53.540Z,93.60
2018-08-09T16:30:25.883Z,93.30
2018-08-09T16:32:54.708Z,93.10
2018-08-09T16:35:24.017Z,93.10
2018-08-09T16:37:52.497Z,93.20
2018-08-09T16:40:22.483Z,92.90
2018-08-09T16:42:51.012Z,93.10
2018-08-09T16:45:20.661Z,93.10
2018-08-09T16:47:49.576Z,93.10
2018-08-09T16:50:20.063Z,93.00
2018-08-09T16:52:49.338Z,93.00
2018-08-09T16:55:19.050Z,92.90
2018-08-09T16:57:47.599Z,93.00
2018-08-09T17:00:18.444Z,92.70
2018-08-09T17:02:46.936Z,92.50
2018-08-09T17:05:18.177Z,92.40
2018-08-09T17:07:46.817Z,92.30
2018-08-09T17:10:19.664Z,92.00
2018-08-09T17:12:48.144Z,91.90
2018-08-09T17:15:20.196Z,91.90
2018-08-09T17:17:48.587Z,91.90
2018-08-09T17:20:20.197Z,91.90
2018-08-09T17:22:48.669Z,91.80
2018-08-09T17:25:17.131Z,91.80
2018-08-09T17:27:46.617Z,91.90
2018-08-09T17:30:16.268Z,91.80
2018-08-09T17:32:44.730Z,91.80
2018-08-09T17:35:14.347Z,92.30
2018-08-09T17:37:42.887Z,91.30
2018-08-09T17:40:14.804Z,90.90
2018-08-09T17:42:43.890Z,91.50
2018-08-09T17:45:13.708Z,91.90
2018-08-09T17:47:42.244Z,92.50
2018-08-09T17:50:11.438Z,92.50
2018-08-09T17:52:40.074Z,93.00
2018-08-09T17:55:11.629Z,93.50
2018-08-09T17:57:40.981Z,94.20
2018-08-09T18:00:13.609Z,94.70
2018-08-09T18:02:42.084Z,94.30
2018-08-09T18:05:10.845Z,94.40
2018-08-09T18:07:39.251Z,94.50
2018-08-09T18:10:11.417Z,94.70
2018-08-09T18:12:40.025Z,94.40
2018-08-09T18:15:08.597Z,94.90
2018-08-09T18:17:37.972Z,94.80
2018-08-09T18:20:09.945Z,94.90
2018-08-09T18:22:39.470Z,94.80
2018-08-09T18:25:08.916Z,95.00
2018-08-09T18:27:37.595Z,95.10
2018-08-09T18:30:08.253Z,95.10
2018-08-09T18:32:37.022Z,95.00
2018-08-09T18:35:06.792Z,95.10
2018-08-09T18:37:35.615Z,95.10
2018-08-09T18:40:04.988Z,94.80
2018-08-09T18:42:33.912Z,94.80
2018-08-09T18:45:02.346Z,94.80
2018-08-09T18:47:30.867Z,95.00
2018-08-09T18:49:59.275Z,94.70
2018-08-09T18:52:45.853Z,94.00
2018-08-09T18:55:15.798Z,94.00
2018-08-09T18:57:44.270Z,94.00
2018-08-09T19:00:28.868Z,94.20
2018-08-09T19:02:57.550Z,94.30
2018-08-09T19:05:26.762Z,94.30
2018-08-09T19:07:55.353Z,93.80
2018-08-09T19:10:25.814Z,93.80
2018-08-09T19:12:55.452Z,93.60
2018-08-09T19:15:23.999Z,93.70
2018-08-09T19:17:52.903Z,93.70
2018-08-09T19:20:24.567Z,94.10
2018-08-09T19:22:53.186Z,93.70
2018-08-09T19:25:21.860Z,93.70
2018-08-09T19:27:50.404Z,93.70
2018-08-09T19:30:20.450Z,93.70
2018-08-09T19:32:49.382Z,94.00
2018-08-09T19:35:19.614Z,94.30
2018-08-09T19:37:48.791Z,94.20
2018-08-09T19:40:19.111Z,94.20
2018-08-09T19:42:47.608Z,94.60
2018-08-09T19:45:17.165Z,94.70
2018-08-09T19:47:45.668Z,94.70
2018-08-09T19:50:16.460Z,94.90
2018-08-09T19:52:44.972Z,94.80
2018-08-09T19:55:25.063Z,94.90
2018-08-09T19:57:54.016Z,95.00
2018-08-09T20:00:26.298Z,94.80
2018-08-09T20:02:55.756Z,94.80
2018-08-09T20:05:24.613Z,94.70
2018-08-09T20:07:53.276Z,95.00
2018-08-09T20:10:21.934Z,94.60
2018-08-09T20:12:50.399Z,94.70
2018-08-09T20:15:20.510Z,94.50
2018-08-09T20:17:49.120Z,94.40
2018-08-09T20:20:19.126Z,94.50
2018-08-09T20:22:47.666Z,94.30
2018-08-09T20:25:16.366Z,94.20
2018-08-09T20:27:45.377Z,94.60
2018-08-09T20:30:15.761Z,94.40
2018-08-09T20:32:45.147Z,94.30
2018-08-09T20:35:15.498Z,94.20
2018-08-09T20:37:45.151Z,94.40
2018-08-09T20:40:14.194Z,94.20
2018-08-09T20:42:43.231Z,94.20
2018-08-09T20:45:14.839Z,94.80
2018-08-09T20:47:43.325Z,95.10
2018-08-09T20:50:14.906Z,95.80
2018-08-09T20:52:44.428Z,95.80
2018-08-09T20:55:12.954Z,95.40
2018-08-09T20:57:42.459Z,95.30
2018-08-09T21:00:15.640Z,94.80
2018-08-09T21:02:54.836Z,94.70
2018-08-09T21:05:39.444Z,94.70
2018-08-09T21:08:08.432Z,94.80
2018-08-09T21:10:39.948Z,95.10
2018-08-09T21:13:08.655Z,95.10
2018-08-09T21:15:37.598Z,95.30
2018-08-09T21:18:21.371Z,95.40
2018-08-09T21:21:13.498Z,95.50
2018-08-09T21:23:42.132Z,95.60
2018-08-09T21:26:10.524Z,95.10
2018-08-09T21:28:38.918Z,95.30
2018-08-09T21:31:07.508Z,95.20
2018-08-09T21:33:36.828Z,94.90
2018-08-09T21:36:11.306Z,94.70
2018-08-09T21:38:40.305Z,94.30
2018-08-09T21:41:08.728Z,94.70
2018-08-09T21:43:37.047Z,94.30
2018-08-09T21:46:05.520Z,94.70
2018-08-09T21:48:33.869Z,94.60
2018-08-09T21:51:03.210Z,94.10
2018-08-09T21:53:32.647Z,93.30
2018-08-09T21:56:04.397Z,93.30
2018-08-09T21:58:33.329Z,93.50
2018-08-09T22:01:04.745Z,93.70
2018-08-09T22:03:34.976Z,93.10
2018-08-09T22:06:08.788Z,93.20
2018-08-09T22:08:42.648Z,93.00
2018-08-09T22:11:17.487Z,92.70
2018-08-09T22:13:51.722Z,92.60
2018-08-09T22:16:25.777Z,92.70
2018-08-09T22:19:02.209Z,92.30
2018-08-09T22:21:36.437Z,92.00
2018-08-09T22:24:04.854Z,92.30
2018-08-09T22:26:33.267Z,92.50
2018-08-09T22:29:01.612Z,92.60
2018-08-09T22:31:30.226Z,92.10
2018-08-09T22:33:59.076Z,91.20
2018-08-09T22:36:28.543Z,91.50
2018-08-09T22:38:58.754Z,91.70
2018-08-09T22:41:27.818Z,91.50
2018-08-09T22:43:56.596Z,91.80
2018-08-09T22:46:26.085Z,92.00
2018-08-09T22:48:55.156Z,91.90
2018-08-09T22:51:24.411Z,92.00
2018-08-09T22:53:53.018Z,92.10
2018-08-09T22:56:21.409Z,92.30
2018-08-09T22:58:49.748Z,92.30
2018-08-09T23:01:18.127Z,92.20
2018-08-09T23:03:48.013Z,92.30
2018-08-09T23:06:16.391Z,92.30
2018-08-09T23:08:46.888Z,92.10
2018-08-09T23:11:15.613Z,92.30
2018-08-09T23:13:44.566Z,91.10
2018-08-09T23:16:12.948Z,91.20
2018-08-09T23:18:41.482Z,91.30
2018-08-09T23:21:09.955Z,91.10
2018-08-09T23:23:38.436Z,91.30
2018-08-09T23:26:06.929Z,91.00
2018-08-09T23:28:35.443Z,91.10
2018-08-09T23:31:03.764Z,91.10
2018-08-09T23:33:32.460Z,91.10
2018-08-09T23:36:01.714Z,90.90
2018-08-09T23:38:31.129Z,90.60
2018-08-09T23:40:59.713Z,90.60
2018-08-09T23:43:28.601Z,90.80
2018-08-09T23:45:57.967Z,91.00
2018-08-09T23:48:27.757Z,91.00
2018-08-09T23:50:56.885Z,90.90
2018-08-09T23:53:27.376Z,90.20
2018-08-09T23:55:56.609Z,90.10
2018-08-09T23:58:26.107Z,89.60
